Terminal Aerodrome Forecast
Issued by NWS Flagstaff, AZ

Home | Current Version | Previous Version | Text Only | Print | Product List | Glossary On
Versions: 1 2 3 4 5 6 7 8 9 10 11 12 13 14 15 16 17 18 19 20 21 22 23 24 25 26 27 28 29
734
FTUS45 KFGZ 200255 AAB
TAFFLG
TAF AMD
KFLG 200255Z 2003/2024 25012G21KT P6SM SCT030
      TEMPO 2003/2007 5SM -SHSN BKN030
     FM200700 25007KT P6SM SCT030
     FM201800 24010G20KT P6SM FEW050 SCT250=

USA.gov is the U.S. government's official web portal to all federal, state and local government web resources and services.